Time;durP1;ratioP1;P1;durP2;ratioP2;P2;SDS_P1;SDS_P2;PMS_P1;PMS_P2;Temp;Humidity;BMP_temperature;BMP_pressure;BME280_temperature;BME280_humidity;BME280_pressure;Samples;Min_cycle;Max_cycle;Signal;HPM_P1;HPM_P2
2021/06/08 00:01:56;;;;;;;44.25;26.50;;;;;;;;;;5216394;27;20049;-92
2021/06/08 00:04:28;;;;;;;50.47;25.33;;;;;;;;;;5216622;27;20379;-91
2021/06/08 00:07:04;;;;;;;47.15;24.75;;;;;;;;;;5216946;27;20035;-91
2021/06/08 00:09:37;;;;;;;44.45;25.05;;;;;;;;;;5233294;27;20029;-94
2021/06/08 00:12:06;;;;;;;50.50;25.27;;;;;;;;;;5215769;27;20458;-92
2021/06/08 00:14:40;;;;;;;47.08;24.73;;;;;;;;;;5215366;27;20029;-92
2021/06/08 00:17:10;;;;;;;52.13;20.70;;;;;;;;;;5216227;27;20372;-93
2021/06/08 00:19:39;;;;;;;50.47;20.40;;;;;;;;;;5233871;27;20033;-92
2021/06/08 00:22:09;;;;;;;48.97;20.98;;;;;;;;;;5214680;27;20064;-93
2021/06/08 00:24:42;;;;;;;48.58;18.48;;;;;;;;;;5216426;27;20347;-94
2021/06/08 00:27:11;;;;;;;45.72;18.17;;;;;;;;;;5217642;27;20053;-93
2021/06/08 00:29:42;;;;;;;47.62;26.08;;;;;;;;;;5216706;27;20741;-93
2021/06/08 00:32:14;;;;;;;60.63;26.23;;;;;;;;;;5215219;27;20413;-92
2021/06/08 00:34:45;;;;;;;51.85;28.17;;;;;;;;;;5215814;27;20463;-92
2021/06/08 00:37:17;;;;;;;47.30;23.42;;;;;;;;;;5215804;27;20362;-92
2021/06/08 00:39:48;;;;;;;60.90;24.00;;;;;;;;;;5216557;27;20032;-93
2021/06/08 00:42:26;;;;;;;40.47;22.25;;;;;;;;;;5216310;27;20473;-93
2021/06/08 00:44:54;;;;;;;40.60;22.90;;;;;;;;;;5216510;27;20049;-94
2021/06/08 00:47:24;;;;;;;42.45;23.83;;;;;;;;;;5217073;27;20041;-93
2021/06/08 00:49:55;;;;;;;42.00;23.87;;;;;;;;;;5217727;27;20508;-94
2021/06/08 00:52:31;;;;;;;41.60;24.12;;;;;;;;;;5216207;27;20040;-93
2021/06/08 00:55:10;;;;;;;51.42;24.98;;;;;;;;;;5234004;27;20037;-92
2021/06/08 00:57:50;;;;;;;39.80;18.08;;;;;;;;;;5216998;27;20706;-95
2021/06/08 01:00:25;;;;;;;45.63;18.58;;;;;;;;;;5217240;27;20026;-93
2021/06/08 01:02:56;;;;;;;46.20;18.95;;;;;;;;;;5216479;27;20058;-94
2021/06/08 01:05:29;;;;;;;39.40;20.45;;;;;;;;;;5217556;27;20583;-93
2021/06/08 01:08:07;;;;;;;42.55;20.88;;;;;;;;;;5217444;27;20072;-94
2021/06/08 01:10:40;;;;;;;44.58;25.05;;;;;;;;;;5218159;27;20041;-92
2021/06/08 01:13:13;;;;;;;53.08;25.75;;;;;;;;;;5216909;27;20028;-94
2021/06/08 01:15:43;;;;;;;50.45;28.58;;;;;;;;;;5216515;27;20030;-94
2021/06/08 01:18:19;;;;;;;59.35;28.27;;;;;;;;;;5217462;27;20406;-92
2021/06/08 01:21:10;;;;;;;48.25;26.77;;;;;;;;;;5217240;27;20052;-92
2021/06/08 01:23:48;;;;;;;38.17;22.95;;;;;;;;;;5216835;27;20029;-94
2021/06/08 01:26:17;;;;;;;48.35;24.35;;;;;;;;;;5217112;27;20070;-94
2021/06/08 01:28:52;;;;;;;52.30;28.35;;;;;;;;;;5217031;27;20616;-93
2021/06/08 01:31:24;;;;;;;47.08;27.27;;;;;;;;;;5216500;27;20035;-93
2021/06/08 01:33:55;;;;;;;48.55;27.25;;;;;;;;;;5217013;27;20030;-94
2021/06/08 01:36:33;;;;;;;48.87;27.30;;;;;;;;;;5217686;27;20030;-93
2021/06/08 01:39:05;;;;;;;39.38;18.08;;;;;;;;;;5235187;27;20399;-94
2021/06/08 01:41:37;;;;;;;49.00;19.50;;;;;;;;;;5217079;27;20364;-94
2021/06/08 01:44:06;;;;;;;34.42;17.70;;;;;;;;;;5215758;27;20054;-91
2021/06/08 01:46:41;;;;;;;43.03;18.30;;;;;;;;;;5216072;27;20101;-94
2021/06/08 01:49:11;;;;;;;49.63;19.37;;;;;;;;;;5215197;27;20057;-93
2021/06/08 01:51:59;;;;;;;53.95;27.27;;;;;;;;;;5214736;27;20057;-93
2021/06/08 01:54:44;;;;;;;54.10;21.48;;;;;;;;;;5214888;27;20179;-93
2021/06/08 01:57:41;;;;;;;49.78;21.83;;;;;;;;;;5218238;27;20033;-91
2021/06/08 02:00:33;;;;;;;47.10;21.40;;;;;;;;;;5215658;27;20027;-93
2021/06/08 02:03:13;;;;;;;52.47;21.65;;;;;;;;;;5218391;27;20293;-93
2021/06/08 02:05:50;;;;;;;46.78;21.33;;;;;;;;;;5215076;27;20040;-93
2021/06/08 02:08:22;;;;;;;55.50;21.87;;;;;;;;;;5216351;27;20034;-93
2021/06/08 02:11:00;;;;;;;59.23;23.00;;;;;;;;;;5217526;27;20114;-92
2021/06/08 02:13:33;;;;;;;53.55;21.98;;;;;;;;;;5216640;27;20026;-94
2021/06/08 02:16:12;;;;;;;50.60;22.17;;;;;;;;;;5215213;27;20057;-94
2021/06/08 02:18:48;;;;;;;50.15;21.70;;;;;;;;;;5217940;27;20057;-94
2021/06/08 02:21:39;;;;;;;43.22;21.05;;;;;;;;;;5215778;27;20052;-92
2021/06/08 02:24:16;;;;;;;46.50;21.55;;;;;;;;;;5216355;27;20471;-93
2021/06/08 02:26:47;;;;;;;52.05;21.83;;;;;;;;;;5214944;27;20028;-93
2021/06/08 02:29:21;;;;;;;55.97;21.42;;;;;;;;;;5216606;27;20065;-92
2021/06/08 02:31:49;;;;;;;58.87;20.12;;;;;;;;;;5215254;27;20033;-92
2021/06/08 02:34:19;;;;;;;51.25;21.83;;;;;;;;;;5214992;27;20467;-92
2021/06/08 02:36:54;;;;;;;58.10;23.02;;;;;;;;;;5233387;27;20458;-94
2021/06/08 02:39:29;;;;;;;62.92;22.67;;;;;;;;;;5216982;27;20032;-93
2021/06/08 02:41:58;;;;;;;44.10;21.30;;;;;;;;;;5217329;27;20034;-92
2021/06/08 02:44:31;;;;;;;56.53;22.13;;;;;;;;;;5214613;27;20037;-93
2021/06/08 02:47:04;;;;;;;51.03;21.75;;;;;;;;;;5217493;27;20338;-93
2021/06/08 02:49:35;;;;;;;54.05;21.80;;;;;;;;;;5217858;27;20530;-91
2021/06/08 02:52:05;;;;;;;56.65;21.62;;;;;;;;;;5217273;27;20094;-93
2021/06/08 02:54:34;;;;;;;43.50;20.52;;;;;;;;;;5216266;27;20590;-91
2021/06/08 02:57:08;;;;;;;48.22;20.30;;;;;;;;;;5217899;27;20387;-94
2021/06/08 02:59:49;;;;;;;42.15;20.30;;;;;;;;;;5220197;27;20222;-93
2021/06/08 03:02:19;;;;;;;53.28;21.70;;;;;;;;;;5216605;27;20084;-94
2021/06/08 03:04:58;;;;;;;50.53;21.80;;;;;;;;;;5235516;27;20026;-92
2021/06/08 03:07:32;;;;;;;51.30;22.17;;;;;;;;;;5218793;27;20066;-92
2021/06/08 03:10:06;;;;;;;51.15;21.35;;;;;;;;;;5218730;27;20094;-92
2021/06/08 03:12:39;;;;;;;54.88;20.73;;;;;;;;;;5214306;27;20055;-94
2021/06/08 03:15:09;;;;;;;57.10;21.08;;;;;;;;;;5215828;27;20030;-92
2021/06/08 03:17:44;;;;;;;50.53;20.12;;;;;;;;;;5216838;27;20096;-92
2021/06/08 03:20:27;;;;;;;42.67;21.17;;;;;;;;;;5233775;27;20031;-93
2021/06/08 03:23:05;;;;;;;58.08;22.15;;;;;;;;;;5214311;27;20026;-93
2021/06/08 03:25:35;;;;;;;37.85;20.48;;;;;;;;;;5215255;27;20040;-93
2021/06/08 03:28:07;;;;;;;44.92;21.17;;;;;;;;;;5216591;27;20031;-92
2021/06/08 03:30:40;;;;;;;39.08;19.90;;;;;;;;;;5215741;27;20060;-93
2021/06/08 03:33:09;;;;;;;40.35;20.05;;;;;;;;;;5214361;27;20069;-92
2021/06/08 03:35:41;;;;;;;43.78;21.15;;;;;;;;;;5233808;27;20033;-93
2021/06/08 03:38:18;;;;;;;43.30;21.05;;;;;;;;;;5217163;27;20030;-93
2021/06/08 03:40:49;;;;;;;54.53;20.98;;;;;;;;;;5216937;27;20045;-93
2021/06/08 03:43:20;;;;;;;42.42;21.40;;;;;;;;;;5216867;27;20056;-93
2021/06/08 03:45:52;;;;;;;42.83;21.23;;;;;;;;;;5216735;27;20411;-93
2021/06/08 03:48:24;;;;;;;49.65;21.87;;;;;;;;;;5215509;27;20035;-94
2021/06/08 03:50:54;;;;;;;54.22;21.25;;;;;;;;;;5215351;27;20041;-94
2021/06/08 03:53:25;;;;;;;52.03;21.08;;;;;;;;;;5233877;27;20034;-93
2021/06/08 03:55:57;;;;;;;47.08;22.15;;;;;;;;;;5214963;27;20392;-93
2021/06/08 03:58:32;;;;;;;53.10;21.50;;;;;;;;;;5216071;27;20064;-93
2021/06/08 04:01:06;;;;;;;41.85;20.67;;;;;;;;;;5213990;27;20068;-93
2021/06/08 04:03:38;;;;;;;;;;;;;;;;;;5216200;27;20030;-93
2021/06/08 04:06:14;;;;;;;50.78;21.05;;;;;;;;;;5213331;27;19956;-92
2021/06/08 04:08:46;;;;;;;;;;;;;;;;;;5215561;27;20038;-92
2021/06/08 04:11:20;;;;;;;46.20;21.58;;;;;;;;;;5214139;27;19979;-94
2021/06/08 04:13:51;;;;;;;;;;;;;;;;;;5233714;27;20263;-93
2021/06/08 04:16:19;;;;;;;56.83;22.20;;;;;;;;;;5213950;27;20277;-94
2021/06/08 04:18:55;;;;;;;45.47;21.52;;;;;;;;;;5217181;27;20026;-93
2021/06/08 04:21:24;;;;;;;49.05;22.35;;;;;;;;;;5215431;27;20030;-94
2021/06/08 04:24:06;;;;;;;38.33;20.67;;;;;;;;;;5216610;27;20027;-92
2021/06/08 04:26:36;;;;;;;36.17;20.20;;;;;;;;;;5216318;27;20018;-93
2021/06/08 04:29:08;;;;;;;43.60;21.25;;;;;;;;;;5216803;27;20060;-94
2021/06/08 04:31:44;;;;;;;47.47;21.50;;;;;;;;;;5215809;27;20371;-94
2021/06/08 04:34:19;;;;;;;45.00;21.33;;;;;;;;;;5216010;27;20061;-94
2021/06/08 04:36:58;;;;;;;41.78;21.15;;;;;;;;;;5215411;27;20033;-91
2021/06/08 04:39:32;;;;;;;41.47;20.90;;;;;;;;;;5215962;27;20022;-94
2021/06/08 04:42:04;;;;;;;50.60;21.00;;;;;;;;;;5215487;27;20061;-93
2021/06/08 04:44:36;;;;;;;42.65;20.80;;;;;;;;;;5233019;27;20081;-93
2021/06/08 04:47:12;;;;;;;44.28;21.52;;;;;;;;;;5215727;27;20037;-92
2021/06/08 04:49:44;;;;;;;42.17;21.55;;;;;;;;;;5213660;27;20030;-92
2021/06/08 04:52:15;;;;;;;39.40;21.58;;;;;;;;;;5216052;27;20021;-92
2021/06/08 04:54:49;;;;;;;48.65;21.10;;;;;;;;;;5215929;27;20462;-92
2021/06/08 04:57:22;;;;;;;46.70;22.58;;;;;;;;;;5215262;27;20022;-92
2021/06/08 05:00:04;;;;;;;49.20;22.42;;;;;;;;;;5216023;27;20026;-91
2021/06/08 05:02:37;;;;;;;;;;;;;;;;;;5217329;27;20430;-93
2021/06/08 05:05:08;;;;;;;37.63;20.15;;;;;;;;;;5214965;27;20162;-94
2021/06/08 05:07:39;;;;;;;38.78;20.40;;;;;;;;;;5214357;27;20083;-94
2021/06/08 05:10:11;;;;;;;39.90;20.80;;;;;;;;;;5216144;27;20026;-94
2021/06/08 05:12:45;;;;;;;43.10;19.77;;;;;;;;;;5215946;27;20399;-93
2021/06/08 05:15:19;;;;;;;36.45;19.77;;;;;;;;;;5216746;27;20069;-93
2021/06/08 05:17:50;;;;;;;40.95;20.88;;;;;;;;;;5215626;27;20693;-94
2021/06/08 05:20:22;;;;;;;39.35;20.35;;;;;;;;;;5233488;27;20037;-93
2021/06/08 05:22:53;;;;;;;37.90;19.27;;;;;;;;;;5214801;27;20025;-93
2021/06/08 05:25:32;;;;;;;40.22;19.15;;;;;;;;;;5215624;27;20089;-92
2021/06/08 05:28:10;;;;;;;37.35;20.37;;;;;;;;;;5216825;27;20030;-93
2021/06/08 05:30:39;;;;;;;39.50;19.92;;;;;;;;;;5215355;27;20084;-94
2021/06/08 05:33:11;;;;;;;37.13;20.12;;;;;;;;;;5215038;27;20713;-92
2021/06/08 05:35:41;;;;;;;37.67;19.80;;;;;;;;;;5214751;27;20027;-92
2021/06/08 05:38:14;;;;;;;50.70;21.35;;;;;;;;;;5215831;27;20022;-93
2021/06/08 05:40:43;;;;;;;42.50;20.52;;;;;;;;;;5215701;27;20423;-93
2021/06/08 05:43:14;;;;;;;51.08;21.67;;;;;;;;;;5215592;27;20073;-93
2021/06/08 05:45:45;;;;;;;39.08;19.35;;;;;;;;;;5232391;27;20077;-92
2021/06/08 05:48:22;;;;;;;48.87;20.27;;;;;;;;;;5215660;27;20452;-92
2021/06/08 05:51:04;;;;;;;40.22;19.40;;;;;;;;;;5214051;27;20034;-91
2021/06/08 05:53:39;;;;;;;49.50;20.55;;;;;;;;;;5230221;27;20053;-92
2021/06/08 05:56:08;;;;;;;56.60;21.27;;;;;;;;;;5214118;27;20057;-93
2021/06/08 05:58:37;;;;;;;41.72;20.20;;;;;;;;;;5215510;27;20461;-93
2021/06/08 06:01:10;;;;;;;40.75;20.42;;;;;;;;;;5214843;27;20421;-93
2021/06/08 06:03:46;;;;;;;38.08;18.98;;;;;;;;;;5216807;27;20414;-92
2021/06/08 06:06:16;;;;;;;35.00;19.65;;;;;;;;;;5214560;27;20034;-93
2021/06/08 06:08:49;;;;;;;43.90;20.70;;;;;;;;;;5216721;27;20022;-94
2021/06/08 06:11:19;;;;;;;55.78;28.58;;;;;;;;;;5215670;27;20030;-93
2021/06/08 06:13:59;;;;;;;48.40;28.80;;;;;;;;;;5216471;27;20041;-92
2021/06/08 06:16:36;;;;;;;47.15;28.05;;;;;;;;;;5214742;27;20034;-93
2021/06/08 06:19:12;;;;;;;46.50;29.12;;;;;;;;;;5215168;27;20035;-93
2021/06/08 06:21:49;;;;;;;47.03;26.58;;;;;;;;;;5233993;27;20053;-93
2021/06/08 06:24:18;;;;;;;44.75;22.02;;;;;;;;;;5216165;27;20083;-92
2021/06/08 06:26:49;;;;;;;47.17;22.75;;;;;;;;;;5235135;27;20404;-93
2021/06/08 06:29:25;;;;;;;43.65;20.67;;;;;;;;;;5217231;27;20403;-94
2021/06/08 06:31:56;;;;;;;42.65;19.20;;;;;;;;;;5216736;27;20022;-92
2021/06/08 06:34:25;;;;;;;39.00;19.98;;;;;;;;;;5216082;27;20030;-92
2021/06/08 06:36:58;;;;;;;45.67;25.98;;;;;;;;;;5214856;27;20343;-93
2021/06/08 06:39:30;;;;;;;56.78;27.30;;;;;;;;;;5233109;27;20069;-93
2021/06/08 06:42:03;;;;;;;49.15;26.55;;;;;;;;;;5230759;27;20037;-93
2021/06/08 06:44:35;;;;;;;51.25;27.10;;;;;;;;;;5214433;27;20022;-94
2021/06/08 06:47:06;;;;;;;46.08;26.87;;;;;;;;;;5215012;27;20429;-94
2021/06/08 06:49:35;;;;;;;46.55;27.23;;;;;;;;;;5215506;27;20056;-92
2021/06/08 06:52:11;;;;;;;48.17;27.10;;;;;;;;;;5218008;27;20025;-94
2021/06/08 06:54:41;;;;;;;57.80;28.05;;;;;;;;;;5216442;27;20026;-96
2021/06/08 06:57:14;;;;;;;47.67;26.42;;;;;;;;;;5214635;27;20038;-93
2021/06/08 06:59:48;;;;;;;46.15;28.17;;;;;;;;;;5215342;27;20034;-94
2021/06/08 07:02:19;;;;;;;48.53;28.30;;;;;;;;;;5215177;27;20056;-94
2021/06/08 07:04:52;;;;;;;41.78;24.40;;;;;;;;;;5215387;27;20034;-92
2021/06/08 07:07:25;;;;;;;38.47;19.52;;;;;;;;;;5214995;27;20094;-92
2021/06/08 07:09:58;;;;;;;37.70;22.35;;;;;;;;;;5217032;27;20395;-94
2021/06/08 07:12:27;;;;;;;41.67;21.52;;;;;;;;;;5215427;27;20050;-93
2021/06/08 07:15:01;;;;;;;34.22;20.35;;;;;;;;;;5216105;27;20061;-94
2021/06/08 07:17:30;;;;;;;41.13;21.23;;;;;;;;;;5215545;27;20043;-92
2021/06/08 07:20:04;;;;;;;46.03;26.77;;;;;;;;;;5215722;27;20030;-93
2021/06/08 07:22:37;;;;;;;47.38;27.65;;;;;;;;;;5217062;27;20039;-93
2021/06/08 07:25:17;;;;;;;45.50;27.30;;;;;;;;;;5233080;27;20065;-93
2021/06/08 07:27:48;;;;;;;39.67;27.58;;;;;;;;;;5215387;27;20026;-92
2021/06/08 07:30:22;;;;;;;41.45;27.62;;;;;;;;;;5215622;27;20077;-93
2021/06/08 07:33:12;;;;;;;39.47;29.80;;;;;;;;;;5215825;27;20027;-92
2021/06/08 07:35:51;;;;;;;50.30;32.13;;;;;;;;;;5215742;27;20329;-92
2021/06/08 07:38:33;;;;;;;48.13;32.15;;;;;;;;;;5216783;27;20093;-93
2021/06/08 07:41:11;;;;;;;45.12;29.42;;;;;;;;;;5216382;27;20073;-95
2021/06/08 07:43:57;;;;;;;36.33;28.92;;;;;;;;;;5233127;27;20316;-94
2021/06/08 07:46:27;;;;;;;37.53;30.20;;;;;;;;;;5215936;27;20407;-93
2021/06/08 07:49:04;;;;;;;40.15;21.73;;;;;;;;;;5214931;27;20036;-92
2021/06/08 07:51:40;;;;;;;30.92;21.48;;;;;;;;;;5217050;27;20018;-93
2021/06/08 07:54:13;;;;;;;33.63;22.08;;;;;;;;;;5217511;27;20041;-91
2021/06/08 07:56:45;;;;;;;37.00;22.27;;;;;;;;;;5232798;27;20588;-93
2021/06/08 07:59:21;;;;;;;35.80;22.37;;;;;;;;;;5215900;27;20068;-94
2021/06/08 08:01:50;;;;;;;50.60;35.53;;;;;;;;;;5215336;27;20069;-94
2021/06/08 08:04:24;;;;;;;30.70;20.65;;;;;;;;;;5217580;27;20061;-94
2021/06/08 08:07:06;;;;;;;36.47;22.10;;;;;;;;;;5217821;27;20038;-95
2021/06/08 08:09:41;;;;;;;36.50;21.12;;;;;;;;;;5216656;27;20524;-93
2021/06/08 08:12:16;;;;;;;38.45;21.42;;;;;;;;;;5216931;27;20020;-95
2021/06/08 08:14:52;;;;;;;33.10;21.30;;;;;;;;;;5215654;27;20030;-95
2021/06/08 08:17:44;;;;;;;34.95;22.58;;;;;;;;;;5217786;27;20489;-94
2021/06/08 08:20:14;;;;;;;35.22;24.75;;;;;;;;;;5212866;27;20030;-94
2021/06/08 08:22:46;;;;;;;30.77;22.90;;;;;;;;;;5231086;27;20390;-92
2021/06/08 08:25:16;;;;;;;37.65;25.37;;;;;;;;;;5231637;27;20034;-95
2021/06/08 08:27:46;;;;;;;34.30;25.30;;;;;;;;;;5213548;27;20037;-93
2021/06/08 08:30:37;;;;;;;35.40;25.12;;;;;;;;;;5216712;27;20030;-92
2021/06/08 08:33:44;;;;;;;33.50;24.73;;;;;;;;;;5218841;27;20022;-95
2021/06/08 08:36:19;;;;;;;38.97;26.20;;;;;;;;;;5203634;27;20049;-94
2021/06/08 08:38:48;;;;;;;33.25;25.77;;;;;;;;;;5212582;27;20033;-94
2021/06/08 08:41:22;;;;;;;37.25;25.77;;;;;;;;;;5219354;27;20061;-96
2021/06/08 08:44:12;;;;;;;38.15;25.55;;;;;;;;;;5204212;27;20094;-92
2021/06/08 08:47:05;;;;;;;;;;;;;;;;;;;;;
2021/06/08 08:49:39;;;;;;;33.17;24.48;;;;;;;;;;5230220;27;20045;-94
2021/06/08 08:52:33;;;;;;;31.58;25.50;;;;;;;;;;5218244;27;20070;-96
2021/06/08 08:55:14;;;;;;;28.87;20.50;;;;;;;;;;5218411;27;20617;-96
2021/06/08 08:57:57;;;;;;;25.00;11.75;;;;;;;;;;5217200;27;20793;-94
2021/06/08 09:00:42;;;;;;;24.85;7.18;;;;;;;;;;5213495;27;20070;-95
2021/06/08 09:03:32;;;;;;;16.85;4.85;;;;;;;;;;5221254;27;20041;-95
2021/06/08 09:06:13;;;;;;;34.80;6.10;;;;;;;;;;5216320;27;20029;-95
2021/06/08 09:08:47;;;;;;;19.83;4.70;;;;;;;;;;5214833;27;20027;-93
2021/06/08 09:11:18;;;;;;;20.02;5.20;;;;;;;;;;5214077;27;20030;-94
2021/06/08 09:14:03;;;;;;;16.70;4.35;;;;;;;;;;5214859;27;20648;-93
2021/06/08 09:16:43;;;;;;;21.45;4.53;;;;;;;;;;5213451;27;20354;-94
2021/06/08 09:19:29;;;;;;;17.55;4.87;;;;;;;;;;5216379;27;20022;-94
2021/06/08 09:22:00;;;;;;;17.12;4.65;;;;;;;;;;5213534;27;20062;-94
2021/06/08 09:24:44;;;;;;;22.13;5.43;;;;;;;;;;5215448;27;20072;-92
2021/06/08 09:27:29;;;;;;;16.25;4.70;;;;;;;;;;5230620;27;20027;-94
2021/06/08 09:30:13;;;;;;;24.58;5.05;;;;;;;;;;5215527;27;20030;-93
2021/06/08 09:32:46;;;;;;;17.92;4.72;;;;;;;;;;5215027;27;20035;-96
2021/06/08 09:35:17;;;;;;;18.77;4.75;;;;;;;;;;5212453;27;20030;-95
2021/06/08 09:37:46;;;;;;;12.15;4.15;;;;;;;;;;5212975;27;20042;-94
2021/06/08 09:40:39;;;;;;;14.18;4.50;;;;;;;;;;5212800;27;20466;-95
2021/06/08 09:43:13;;;;;;;18.95;4.65;;;;;;;;;;5213074;27;20049;-94
2021/06/08 09:45:54;;;;;;;19.08;4.60;;;;;;;;;;5214436;27;20026;-94
2021/06/08 09:48:47;;;;;;;13.65;4.35;;;;;;;;;;5216437;27;20045;-95
2021/06/08 09:51:22;;;;;;;24.10;5.32;;;;;;;;;;5217923;27;20041;-96
2021/06/08 09:53:53;;;;;;;30.80;5.37;;;;;;;;;;5216139;27;20053;-94
2021/06/08 09:56:32;;;;;;;14.98;3.87;;;;;;;;;;5216520;27;20030;-92
2021/06/08 09:59:03;;;;;;;24.33;4.70;;;;;;;;;;5215906;27;20022;-94
2021/06/08 10:01:32;;;;;;;14.90;4.40;;;;;;;;;;5216170;27;20031;-93
2021/06/08 10:04:15;;;;;;;14.75;4.00;;;;;;;;;;5219097;27;20034;-94
2021/06/08 10:06:50;;;;;;;20.25;4.75;;;;;;;;;;5233086;27;20026;-96
2021/06/08 10:09:25;;;;;;;15.25;4.18;;;;;;;;;;5216912;27;20057;-94
2021/06/08 10:12:06;;;;;;;16.75;4.32;;;;;;;;;;5216721;27;20029;-95
2021/06/08 10:14:39;;;;;;;13.68;4.30;;;;;;;;;;5214477;27;20033;-93
2021/06/08 10:17:28;;;;;;;15.73;3.87;;;;;;;;;;5234340;27;20019;-95
2021/06/08 10:20:17;;;;;;;19.02;4.60;;;;;;;;;;5232970;27;20036;-96
2021/06/08 10:22:53;;;;;;;16.27;4.85;;;;;;;;;;5214791;27;20568;-94
2021/06/08 10:25:36;;;;;;;17.85;4.57;;;;;;;;;;5215811;27;20077;-95
2021/06/08 10:28:12;;;;;;;15.38;4.35;;;;;;;;;;5216950;27;20073;-95
2021/06/08 10:30:42;;;;;;;15.43;4.75;;;;;;;;;;5216172;27;20078;-95
2021/06/08 10:33:29;;;;;;;13.90;4.12;;;;;;;;;;5217169;27;20320;-94
2021/06/08 10:36:13;;;;;;;19.15;5.05;;;;;;;;;;5218741;27;20069;-96
2021/06/08 10:38:47;;;;;;;13.48;4.45;;;;;;;;;;5215759;27;20031;-95
2021/06/08 10:41:36;;;;;;;11.95;3.95;;;;;;;;;;5215139;27;20031;-95
2021/06/08 10:44:06;;;;;;;13.98;3.85;;;;;;;;;;5215850;27;20528;-95
2021/06/08 10:46:50;;;;;;;14.10;4.05;;;;;;;;;;5217004;27;20069;-95
2021/06/08 10:49:45;;;;;;;15.05;3.95;;;;;;;;;;5218904;27;20038;-95
2021/06/08 10:52:46;;;;;;;12.57;4.05;;;;;;;;;;5231463;27;20026;-96
2021/06/08 10:55:24;;;;;;;14.07;4.10;;;;;;;;;;5233139;27;20065;-95
2021/06/08 10:58:02;;;;;;;19.60;4.93;;;;;;;;;;5213414;27;20031;-96
2021/06/08 11:00:57;;;;;;;23.40;4.90;;;;;;;;;;5214933;27;20030;-95
2021/06/08 11:04:02;;;;;;;14.35;4.32;;;;;;;;;;5215680;27;20066;-95
2021/06/08 11:07:19;;;;;;;13.00;4.07;;;;;;;;;;5168949;27;20069;-94
2021/06/08 11:10:36;;;;;;;13.65;4.03;;;;;;;;;;5219234;27;20018;-96
2021/06/08 11:14:25;;;;;;;14.30;4.03;;;;;;;;;;5226896;27;20335;-96
2021/06/08 11:17:36;;;;;;;37.58;6.18;;;;;;;;;;5235674;27;20027;-96
2021/06/08 11:20:42;;;;;;;16.70;4.80;;;;;;;;;;5219077;27;20427;-96
2021/06/08 11:23:54;;;;;;;13.52;4.18;;;;;;;;;;5216724;27;20023;-96
2021/06/08 11:27:12;;;;;;;14.77;3.87;;;;;;;;;;5203461;27;20026;-96
2021/06/08 11:30:00;;;;;;;;;;;;;;;;;;;;;
2021/06/08 11:32:55;;;;;;;16.02;4.18;;;;;;;;;;5204881;27;20015;-94
2021/06/08 11:36:40;;;;;;;14.50;3.80;;;;;;;;;;5216999;27;20030;-96
2021/06/08 11:39:56;;;;;;;13.57;4.18;;;;;;;;;;5221609;27;20029;-96
2021/06/08 11:42:46;;;;;;;17.17;4.50;;;;;;;;;;5217936;27;20072;-96
2021/06/08 11:45:54;;;;;;;14.18;3.90;;;;;;;;;;5223488;27;20069;-96
2021/06/08 11:48:55;;;;;;;22.33;4.90;;;;;;;;;;5232351;27;20023;-95
2021/06/08 11:52:05;;;;;;;11.85;3.80;;;;;;;;;;5202325;27;20045;-96
2021/06/08 11:55:02;;;;;;;15.25;3.90;;;;;;;;;;5233603;27;20041;-96
2021/06/08 11:57:45;;;;;;;34.00;5.25;;;;;;;;;;5217106;27;20073;-95
2021/06/08 12:00:44;;;;;;;15.15;4.05;;;;;;;;;;5216312;27;20384;-95
2021/06/08 12:03:37;;;;;;;46.67;6.00;;;;;;;;;;5219592;27;20026;-94
2021/06/08 12:06:19;;;;;;;16.83;4.30;;;;;;;;;;5217227;27;20025;-96
2021/06/08 12:09:05;;;;;;;13.90;4.03;;;;;;;;;;5220975;27;20041;-96
2021/06/08 12:11:55;;;;;;;27.40;5.40;;;;;;;;;;5235489;27;20026;-95
2021/06/08 12:14:28;;;;;;;15.15;4.32;;;;;;;;;;5217381;27;20089;-96
2021/06/08 12:17:12;;;;;;;9.65;3.47;;;;;;;;;;5218386;27;20030;-96
2021/06/08 12:20:04;;;;;;;19.12;4.00;;;;;;;;;;5211761;27;20074;-96
2021/06/08 12:22:54;;;;;;;20.37;4.82;;;;;;;;;;5218647;27;20036;-96
2021/06/08 12:25:29;;;;;;;14.02;4.30;;;;;;;;;;5218158;27;20032;-96
2021/06/08 12:28:20;;;;;;;37.30;6.37;;;;;;;;;;5207563;27;20026;-96
2021/06/08 12:31:19;;;;;;;14.82;4.20;;;;;;;;;;5216735;27;20010;-94
2021/06/08 12:33:55;;;;;;;12.40;3.65;;;;;;;;;;5216554;27;20494;-94
2021/06/08 12:36:30;;;;;;;17.48;3.67;;;;;;;;;;5217935;27;20030;-96
2021/06/08 12:38:58;;;;;;;11.57;3.70;;;;;;;;;;5215318;27;20031;-96
2021/06/08 12:41:36;;;;;;;10.50;3.85;;;;;;;;;;5216155;27;20031;-96
2021/06/08 12:44:06;;;;;;;;;;;;;;;;;;5216782;27;20426;-96
2021/06/08 12:46:44;;;;;;;11.30;3.78;;;;;;;;;;5219035;27;19936;-96
2021/06/08 12:49:22;;;;;;;;;;;;;;;;;;5217415;27;20025;-96
2021/06/08 12:52:18;;;;;;;14.70;3.65;;;;;;;;;;5215877;27;19964;-96
2021/06/08 12:54:58;;;;;;;46.05;6.22;;;;;;;;;;5200952;27;20026;-96
2021/06/08 12:57:48;;;;;;;12.87;4.50;;;;;;;;;;5197714;27;20026;-96
2021/06/08 13:00:18;;;;;;;26.65;5.22;;;;;;;;;;5198346;27;20135;-93
2021/06/08 13:02:56;;;;;;;16.92;4.10;;;;;;;;;;5201167;27;20081;-96
2021/06/08 13:05:35;;;;;;;13.80;4.20;;;;;;;;;;5203710;27;20029;-94
2021/06/08 13:08:09;;;;;;;20.20;4.68;;;;;;;;;;5207901;27;20030;-96
2021/06/08 13:10:49;;;;;;;13.98;4.10;;;;;;;;;;5205540;27;20092;-96
2021/06/08 13:17:34;;;;;;;16.85;4.65;;;;;;;;;;5079269;28;20171;-81
2021/06/08 13:20:19;;;;;;;44.22;6.43;;;;;;;;;;5132637;27;20063;-85
2021/06/08 13:22:50;;;;;;;18.42;4.82;;;;;;;;;;5140416;27;20425;-84
2021/06/08 13:25:20;;;;;;;21.23;5.47;;;;;;;;;;5136972;27;20034;-85
2021/06/08 13:27:57;;;;;;;17.83;4.60;;;;;;;;;;5106515;27;20957;-85
2021/06/08 13:30:35;;;;;;;29.20;6.00;;;;;;;;;;5133365;27;20031;-85
2021/06/08 13:33:05;;;;;;;;;;;;;;;;;;5134933;27;20027;-81
2021/06/08 13:35:51;;;;;;;19.95;4.57;;;;;;;;;;5134637;27;19938;-85
2021/06/08 13:38:53;;;;;;;21.40;4.70;;;;;;;;;;5149685;27;20185;-84
2021/06/08 13:42:23;;;;;;;18.58;4.30;;;;;;;;;;5139023;27;20486;-84
2021/06/08 13:45:21;;;;;;;21.35;5.18;;;;;;;;;;5048203;28;20688;-85
2021/06/08 13:48:27;;;;;;;18.83;4.62;;;;;;;;;;5058262;28;20448;-83
2021/06/08 13:51:13;;;;;;;16.55;4.20;;;;;;;;;;5096027;28;20597;-86
2021/06/08 13:53:43;;;;;;;16.10;4.20;;;;;;;;;;5126033;27;20078;-86
2021/06/08 13:56:26;;;;;;;17.17;4.90;;;;;;;;;;5113267;27;20040;-86
2021/06/08 14:01:55;;;;;;;17.00;4.78;;;;;;;;;;5114988;27;20849;-85
2021/06/08 14:04:46;;;;;;;18.65;4.53;;;;;;;;;;5104655;27;20042;-86
2021/06/08 14:07:29;;;;;;;19.90;4.85;;;;;;;;;;5110144;27;20036;-84
2021/06/08 14:10:06;;;;;;;20.60;5.28;;;;;;;;;;5098037;27;20039;-85
2021/06/08 14:12:44;;;;;;;18.27;4.57;;;;;;;;;;5107060;28;20448;-85
2021/06/08 14:15:17;;;;;;;15.00;4.00;;;;;;;;;;5147994;27;20049;-85
2021/06/08 14:17:51;;;;;;;17.73;4.75;;;;;;;;;;5198247;27;20070;-86
2021/06/08 14:20:37;;;;;;;17.15;4.70;;;;;;;;;;5202627;27;20026;-84
2021/06/08 14:23:13;;;;;;;20.17;5.18;;;;;;;;;;5213772;27;20034;-86
2021/06/08 14:25:49;;;;;;;17.85;4.45;;;;;;;;;;5215613;27;20391;-84
2021/06/08 14:28:27;;;;;;;13.75;4.32;;;;;;;;;;5204571;27;20026;-88
2021/06/08 14:30:59;;;;;;;17.75;4.40;;;;;;;;;;5197589;27;20066;-83
2021/06/08 14:33:33;;;;;;;17.33;4.68;;;;;;;;;;5214508;27;20068;-87
2021/06/08 14:36:32;;;;;;;25.42;5.05;;;;;;;;;;5214111;27;20189;-87
2021/06/08 14:39:04;;;;;;;20.77;5.15;;;;;;;;;;5198624;27;20033;-85
2021/06/08 14:41:36;;;;;;;20.90;4.87;;;;;;;;;;5216559;27;20063;-85
2021/06/08 14:44:10;;;;;;;20.15;4.85;;;;;;;;;;5225974;27;20053;-85
2021/06/08 14:46:39;;;;;;;16.67;4.62;;;;;;;;;;5224467;27;20639;-85
2021/06/08 14:49:12;;;;;;;16.92;4.60;;;;;;;;;;5217471;27;20022;-86
2021/06/08 14:51:43;;;;;;;17.15;4.70;;;;;;;;;;5200683;27;20041;-84
2021/06/08 14:54:18;;;;;;;18.15;4.62;;;;;;;;;;5220643;27;20060;-84
2021/06/08 14:56:50;;;;;;;18.80;4.80;;;;;;;;;;5202482;27;20033;-85
2021/06/08 14:59:26;;;;;;;21.52;5.28;;;;;;;;;;5234687;27;20056;-84
2021/06/08 15:02:07;;;;;;;15.32;3.97;;;;;;;;;;5235115;27;20907;-86
2021/06/08 15:04:49;;;;;;;16.92;5.03;;;;;;;;;;5217360;27;20373;-86
2021/06/08 15:07:31;;;;;;;22.73;5.37;;;;;;;;;;5224293;27;20026;-85
2021/06/08 15:10:01;;;;;;;19.75;4.45;;;;;;;;;;5241584;27;20142;-86
2021/06/08 15:12:46;;;;;;;20.40;5.03;;;;;;;;;;5215826;27;20036;-84
2021/06/08 15:15:21;;;;;;;15.77;4.53;;;;;;;;;;5217080;27;20321;-85
2021/06/08 15:17:59;;;;;;;16.33;4.53;;;;;;;;;;5246016;27;21010;-85
2021/06/08 15:20:44;;;;;;;21.98;5.25;;;;;;;;;;5221216;27;20061;-86
2021/06/08 15:23:29;;;;;;;60.83;8.35;;;;;;;;;;5200007;27;20106;-86
2021/06/08 15:26:17;;;;;;;26.90;5.05;;;;;;;;;;5221197;27;20030;-84
2021/06/08 15:28:52;;;;;;;18.55;4.47;;;;;;;;;;5204345;27;20108;-84
2021/06/08 15:31:23;;;;;;;22.70;5.20;;;;;;;;;;5226810;27;20018;-85
2021/06/08 15:33:55;;;;;;;20.25;4.85;;;;;;;;;;5204573;27;20045;-81
2021/06/08 15:36:32;;;;;;;19.50;4.72;;;;;;;;;;5222033;27;20034;-86
2021/06/08 15:39:02;;;;;;;21.05;4.68;;;;;;;;;;5202421;27;20026;-85